Time;durP1;ratioP1;P1;durP2;ratioP2;P2;SDS_P1;SDS_P2;PMS_P1;PMS_P2;Temp;Humidity;BMP_temperature;BMP_pressure;BME280_temperature;BME280_humidity;BME280_pressure;Samples;Min_cycle;Max_cycle;Signal;HPM_P1;HPM_P2
2021/12/21 00:00:19;;;;;;;19.42;7.90;;;;;;;-2.67;100.00;98844.94;5072344;28;20072;-57
2021/12/21 00:02:48;;;;;;;20.23;8.23;;;;;;;-2.83;100.00;98843.69;5077720;28;20047;-56
2021/12/21 00:05:21;;;;;;;20.27;8.48;;;;;;;-2.86;100.00;98837.66;5073992;28;20497;-55
2021/12/21 00:07:50;;;;;;;20.63;8.50;;;;;;;-2.98;100.00;98836.50;5073289;28;20023;-56
2021/12/21 00:10:18;;;;;;;19.27;8.07;;;;;;;-2.80;100.00;98835.25;5072882;28;20591;-56
2021/12/21 00:13:02;;;;;;;19.83;7.78;;;;;;;-2.84;100.00;98836.00;5076570;28;20028;-55
2021/12/21 00:18:04;;;;;;;18.77;7.70;;;;;;;-2.84;100.00;98833.44;5076829;28;20030;-56
2021/12/21 00:25:35;;;;;;;21.65;8.30;;;;;;;-2.80;100.00;98835.25;5073320;28;20036;-54
2021/12/21 00:28:02;;;;;;;20.95;8.30;;;;;;;-2.83;100.00;98820.72;5074752;28;20035;-54
2021/12/21 00:30:27;;;;;;;21.77;8.55;;;;;;;-2.87;100.00;98826.53;5076203;28;20036;-54
2021/12/21 00:32:53;;;;;;;16.67;7.72;;;;;;;-2.63;100.00;98831.44;5074234;28;20637;-54
2021/12/21 00:35:18;;;;;;;15.35;7.28;;;;;;;-2.73;100.00;98826.91;5075725;28;20028;-56
2021/12/21 00:37:46;;;;;;;22.20;7.93;;;;;;;-2.78;100.00;98829.34;5072535;28;20028;-55
2021/12/21 00:40:11;;;;;;;24.73;8.13;;;;;;;-2.93;100.00;98829.81;5068711;28;20039;-56
2021/12/21 00:42:37;;;;;;;18.45;7.38;;;;;;;-2.88;100.00;98823.97;5071686;28;20028;-54
2021/12/21 00:45:03;;;;;;;17.83;8.05;;;;;;;-2.98;100.00;98826.28;5071461;28;20028;-55
2021/12/21 00:47:29;;;;;;;18.60;7.85;;;;;;;-3.15;100.00;98827.53;5073969;28;20028;-54
2021/12/21 00:50:02;;;;;;;20.75;7.95;;;;;;;-2.95;100.00;98821.25;5090636;28;20027;-54
2021/12/21 00:52:28;;;;;;;22.13;8.07;;;;;;;-2.97;100.00;98832.25;5078491;28;20047;-54
2021/12/21 00:54:54;;;;;;;18.88;7.32;;;;;;;-3.11;100.00;98832.75;5077201;28;20033;-56
2021/12/21 00:57:19;;;;;;;18.17;8.10;;;;;;;-3.10;100.00;98825.97;5075307;28;20391;-56
2021/12/21 00:59:45;;;;;;;22.25;7.90;;;;;;;-3.08;100.00;98828.56;5077521;28;21011;-55
2021/12/21 01:02:12;;;;;;;21.33;7.95;;;;;;;-2.98;100.00;98830.50;5079045;28;20040;-55
2021/12/21 01:04:43;;;;;;;20.35;8.15;;;;;;;-2.93;100.00;98824.69;5078218;28;20909;-57
2021/12/21 01:12:48;;;;;;;21.88;8.55;;;;;;;-3.06;100.00;98827.75;5078232;28;20094;-55
2021/12/21 01:18:03;;;;;;;19.30;7.00;;;;;;;-3.14;100.00;98834.38;5078133;28;20020;-57
2021/12/21 01:20:37;;;;;;;20.67;7.78;;;;;;;-3.06;100.00;98832.00;5077879;28;20032;-56
2021/12/21 01:23:32;;;;;;;22.85;7.82;;;;;;;-3.14;100.00;98824.16;5075140;28;20107;-55
2021/12/21 01:26:08;;;;;;;18.13;7.72;;;;;;;-3.30;100.00;98833.06;5079644;27;20078;-55
2021/12/21 01:31:17;;;;;;;20.95;8.27;;;;;;;-3.35;100.00;98827.84;5074247;28;20606;-56
2021/12/21 01:36:29;;;;;;;22.27;8.32;;;;;;;-3.21;100.00;98827.38;5081669;28;20035;-56
2021/12/21 01:39:10;;;;;;;23.65;7.53;;;;;;;-3.16;100.00;98830.88;5075777;28;20023;-55
2021/12/21 01:41:49;;;;;;;22.20;8.35;;;;;;;-3.43;100.00;98826.75;5078188;28;20722;-55
2021/12/21 01:49:49;;;;;;;20.58;7.47;;;;;;;-3.19;100.00;98816.38;5074943;28;20714;-55
2021/12/21 01:52:18;;;;;;;25.83;6.97;;;;;;;-3.21;100.00;98819.72;5072295;28;20040;-55
2021/12/21 01:54:44;;;;;;;15.98;6.70;;;;;;;-3.34;100.00;98816.81;5079268;28;20027;-55
2021/12/21 01:57:11;;;;;;;20.70;7.60;;;;;;;-3.26;100.00;98814.47;5076115;28;20032;-55
2021/12/21 01:59:38;;;;;;;21.27;7.28;;;;;;;-3.35;100.00;98812.53;5078320;28;20628;-56
2021/12/21 02:02:08;;;;;;;20.83;7.32;;;;;;;-3.18;100.00;98807.91;5072697;28;20136;-55
2021/12/21 02:04:34;;;;;;;16.95;5.75;;;;;;;-3.24;100.00;98806.84;5075223;28;20077;-57
2021/12/21 02:06:59;;;;;;;21.63;6.18;;;;;;;-3.32;100.00;98802.41;5077380;28;20056;-56
2021/12/21 02:09:33;;;;;;;18.08;6.45;;;;;;;-3.00;100.00;98802.38;5079335;28;20762;-55
2021/12/21 02:11:58;;;;;;;19.95;6.30;;;;;;;-3.01;100.00;98805.78;5077118;28;20148;-54
2021/12/21 02:14:23;;;;;;;13.80;4.70;;;;;;;-3.16;100.00;98801.16;5074087;28;20398;-56
2021/12/21 02:17:15;;;;;;;14.82;6.00;;;;;;;-3.10;100.00;98791.09;5078882;28;20040;-55
2021/12/21 02:23:08;;;;;;;13.05;5.05;;;;;;;-2.98;100.00;98788.00;5070534;28;20489;-54
2021/12/21 02:25:53;;;;;;;8.88;3.60;;;;;;;-3.08;100.00;98786.03;5078144;28;20055;-54
2021/12/21 02:30:52;;;;;;;12.27;4.32;;;;;;;-2.91;100.00;98786.44;5077223;28;20041;-54
2021/12/21 02:33:17;;;;;;;10.30;4.05;;;;;;;-2.86;100.00;98773.81;5080698;28;20067;-56
2021/12/21 02:35:43;;;;;;;12.20;5.05;;;;;;;-2.89;100.00;98773.72;5082786;28;20060;-54
2021/12/21 02:38:10;;;;;;;19.30;6.15;;;;;;;-2.84;100.00;98775.56;5076229;28;20028;-56
2021/12/21 02:40:35;;;;;;;15.10;5.63;;;;;;;-2.91;100.00;98771.97;5075474;28;20686;-54
2021/12/21 02:43:02;;;;;;;8.90;3.13;;;;;;;-2.92;100.00;98765.16;5078814;28;20104;-56
2021/12/21 02:45:28;;;;;;;7.65;3.20;;;;;;;-2.82;100.00;98771.34;5078449;28;20131;-56
2021/12/21 02:47:53;;;;;;;9.75;3.55;;;;;;;-2.70;100.00;98775.91;5081118;28;20107;-55
2021/12/21 02:50:19;;;;;;;12.20;4.90;;;;;;;-2.67;100.00;98767.44;5075334;28;20114;-56
2021/12/21 02:52:46;;;;;;;9.73;4.18;;;;;;;-2.90;100.00;98772.88;5073434;28;20103;-56
2021/12/21 02:55:13;;;;;;;11.80;5.05;;;;;;;-2.67;100.00;98767.44;5076562;28;20066;-56
2021/12/21 02:57:39;;;;;;;15.10;5.25;;;;;;;-2.61;100.00;98768.47;5078381;28;20532;-56
2021/12/21 03:00:06;;;;;;;16.40;5.82;;;;;;;-2.77;100.00;98768.94;5078640;28;20030;-56
2021/12/21 03:02:32;;;;;;;17.48;6.90;;;;;;;-2.81;100.00;98764.56;5077806;28;20122;-56
2021/12/21 03:04:58;;;;;;;17.48;6.45;;;;;;;-2.98;100.00;98759.94;5072641;28;20325;-58
2021/12/21 03:08:01;;;;;;;15.85;6.95;;;;;;;-3.02;100.00;98768.31;5070523;28;20040;-55
2021/12/21 03:10:23;;;;;;;17.67;6.43;;;;;;;-3.15;100.00;98756.91;5076686;28;20111;-55
2021/12/21 03:15:23;;;;;;;14.30;6.00;;;;;;;-3.43;100.00;98763.00;5075821;28;20712;-54
2021/12/21 03:17:50;;;;;;;18.88;6.40;;;;;;;-3.22;100.00;98760.13;5070931;28;20092;-55
2021/12/21 03:20:16;;;;;;;21.40;6.78;;;;;;;-3.20;100.00;98760.19;5075141;28;20439;-55
2021/12/21 03:22:41;;;;;;;17.25;5.90;;;;;;;-3.35;100.00;98753.84;5075116;28;20485;-57
2021/12/21 03:25:07;;;;;;;17.98;6.15;;;;;;;-3.37;100.00;98758.06;5074419;28;20027;-54
2021/12/21 03:27:33;;;;;;;19.98;6.18;;;;;;;-3.41;100.00;98753.69;5073948;28;20836;-55
2021/12/21 03:29:58;;;;;;;12.68;5.65;;;;;;;-3.30;100.00;98757.38;5076217;28;20654;-55
2021/12/21 03:32:23;;;;;;;19.60;6.22;;;;;;;-3.31;100.00;98755.69;5073876;28;20038;-56
2021/12/21 03:34:49;;;;;;;19.25;5.78;;;;;;;-3.37;100.00;98752.94;5077018;28;20381;-55
2021/12/21 03:37:15;;;;;;;15.82;5.85;;;;;;;-3.56;100.00;98759.25;5075278;28;20541;-54
2021/12/21 03:39:42;;;;;;;15.93;5.70;;;;;;;-3.47;100.00;98758.66;5074274;28;20028;-55
2021/12/21 03:42:09;;;;;;;16.83;5.75;;;;;;;-3.31;100.00;98755.69;5076021;28;20576;-55
2021/12/21 03:44:35;;;;;;;13.60;5.40;;;;;;;-3.34;100.00;98750.47;5072630;28;20107;-55
2021/12/21 03:47:01;;;;;;;15.98;5.28;;;;;;;-3.25;100.00;98754.09;5079063;28;20039;-56
2021/12/21 03:52:06;;;;;;;13.20;5.28;;;;;;;-3.39;100.00;98746.94;5075436;28;20029;-55
2021/12/21 03:54:32;;;;;;;14.98;5.38;;;;;;;-3.47;100.00;98753.53;5070733;28;20037;-55
2021/12/21 03:56:57;;;;;;;12.32;5.13;;;;;;;-3.52;100.00;98750.00;5075484;28;20047;-54
2021/12/21 03:59:23;;;;;;;13.73;5.43;;;;;;;-3.58;100.00;98754.94;5080235;28;20036;-56
2021/12/21 04:01:49;;;;;;;16.05;5.78;;;;;;;-3.51;100.00;98755.16;5067724;28;20044;-58
2021/12/21 04:04:19;;;;;;;14.48;5.53;;;;;;;-3.54;100.00;98755.06;5067330;28;20032;-55
2021/12/21 04:06:46;;;;;;;18.77;5.38;;;;;;;-3.54;100.00;98759.31;5074308;28;20043;-55
2021/12/21 04:09:11;;;;;;;15.98;5.40;;;;;;;-3.51;100.00;98755.16;5075533;28;20081;-57
2021/12/21 04:11:36;;;;;;;14.98;5.50;;;;;;;-3.57;100.00;98751.56;5078469;28;20036;-55
2021/12/21 04:14:02;;;;;;;14.23;5.60;;;;;;;-3.64;100.00;98749.66;5076745;28;20076;-54
2021/12/21 04:16:28;;;;;;;12.98;5.13;;;;;;;-3.81;100.00;98744.09;5072280;28;20025;-56
2021/12/21 04:18:54;;;;;;;13.05;4.90;;;;;;;-3.65;100.00;98748.81;5073326;28;20426;-55
2021/12/21 04:21:19;;;;;;;14.00;5.65;;;;;;;-3.70;100.00;98741.00;5068454;28;20043;-56
2021/12/21 04:23:45;;;;;;;18.83;5.80;;;;;;;-3.83;100.00;98738.94;5075312;28;20644;-55
2021/12/21 04:26:12;;;;;;;13.95;5.78;;;;;;;-3.88;100.00;98745.59;5073843;28;20040;-56
2021/12/21 04:28:38;;;;;;;17.30;5.72;;;;;;;-3.90;100.00;98748.13;5080290;28;20034;-57
2021/12/21 04:31:05;;;;;;;15.57;5.78;;;;;;;-3.97;100.00;98740.22;5081949;28;20036;-54
2021/12/21 04:33:31;;;;;;;14.35;5.72;;;;;;;-3.89;100.00;98734.53;5080960;28;20482;-54
2021/12/21 04:35:57;;;;;;;14.43;5.20;;;;;;;-3.79;100.00;98743.31;5083639;28;20042;-54
2021/12/21 04:38:26;;;;;;;15.23;5.22;;;;;;;-3.93;100.00;98742.06;5078668;28;20774;-56
2021/12/21 04:41:00;;;;;;;19.20;5.90;;;;;;;-3.99;100.00;98747.84;5094837;27;20127;-55
2021/12/21 04:43:25;;;;;;;15.60;6.15;;;;;;;-4.19;100.00;98742.19;5080721;28;20518;-55
2021/12/21 04:45:51;;;;;;;15.80;5.88;;;;;;;-4.27;100.00;98741.06;5084180;28;20078;-56
2021/12/21 04:48:16;;;;;;;16.40;6.15;;;;;;;-4.38;100.00;98742.44;5075747;28;20082;-55
2021/12/21 04:50:42;;;;;;;16.80;6.10;;;;;;;-4.34;100.00;98745.13;5074605;28;20832;-56
2021/12/21 04:53:08;;;;;;;19.58;6.28;;;;;;;-4.41;100.00;98738.13;5079402;28;20055;-54
2021/12/21 04:55:34;;;;;;;16.67;6.97;;;;;;;-4.37;100.00;98744.19;5075816;28;20116;-56
2021/12/21 04:58:00;;;;;;;19.58;6.97;;;;;;;-4.35;100.00;98742.53;5080566;28;20032;-56
2021/12/21 05:00:25;;;;;;;19.90;6.75;;;;;;;-4.19;100.00;98744.72;5078062;28;20025;-56
2021/12/21 05:02:51;;;;;;;16.88;6.53;;;;;;;-4.28;100.00;98752.09;5081507;28;20047;-55
2021/12/21 05:05:16;;;;;;;16.50;6.93;;;;;;;-4.27;100.00;98748.72;5074517;28;20433;-54
2021/12/21 05:07:46;;;;;;;22.45;7.25;;;;;;;-4.32;100.00;98747.72;5079535;28;20517;-55
2021/12/21 05:10:12;;;;;;;15.02;6.45;;;;;;;-4.41;100.00;98749.97;5078431;28;20058;-54
2021/12/21 05:12:38;;;;;;;14.95;5.90;;;;;;;-4.42;100.00;98750.81;5085487;28;20080;-54
2021/12/21 05:15:05;;;;;;;16.63;6.25;;;;;;;-4.49;100.00;98744.66;5075551;28;20021;-53
2021/12/21 05:17:30;;;;;;;15.98;6.05;;;;;;;-4.56;100.00;98747.81;5079694;28;20053;-54
2021/12/21 05:19:55;;;;;;;18.08;6.30;;;;;;;-4.55;100.00;98745.34;5079066;28;20071;-55
2021/12/21 05:22:21;;;;;;;17.83;6.15;;;;;;;-4.56;100.00;98742.75;5078436;28;20063;-55
2021/12/21 05:24:47;;;;;;;14.55;5.80;;;;;;;-4.54;100.00;98742.00;5079504;28;20035;-56
2021/12/21 05:27:13;;;;;;;14.80;5.88;;;;;;;-4.52;100.00;98740.34;5083100;28;20035;-55
2021/12/21 05:29:38;;;;;;;18.00;6.53;;;;;;;-4.52;100.00;98740.34;5057294;28;20080;-55
2021/12/21 05:32:05;;;;;;;15.05;6.40;;;;;;;-4.63;100.00;98740.81;5082974;28;20033;-56
2021/12/21 05:34:31;;;;;;;18.17;6.50;;;;;;;-4.81;100.00;98741.13;5076345;28;20920;-57
2021/12/21 05:36:57;;;;;;;19.75;6.40;;;;;;;-4.61;100.00;98750.25;5076620;28;20035;-55
2021/12/21 05:39:26;;;;;;;20.10;7.50;;;;;;;-4.63;100.00;98756.09;5081305;28;20016;-56
2021/12/21 05:41:56;;;;;;;20.63;7.68;;;;;;;-4.69;100.00;98749.13;5083388;28;20045;-55
2021/12/21 05:44:25;;;;;;;15.50;5.70;;;;;;;-4.63;100.00;98743.38;5076668;28;20068;-55
2021/12/21 05:46:53;;;;;;;15.82;6.00;;;;;;;-4.62;100.00;98748.50;5079424;28;20442;-54
2021/12/21 05:49:19;;;;;;;15.10;6.07;;;;;;;-4.58;100.00;98750.31;5077988;28;20032;-55
2021/12/21 05:51:46;;;;;;;16.77;5.63;;;;;;;-4.55;100.00;98749.56;5076849;28;20105;-55
2021/12/21 05:54:18;;;;;;;16.00;5.38;;;;;;;-4.57;100.00;98748.66;5079538;28;20482;-55
2021/12/21 05:56:44;;;;;;;18.10;5.80;;;;;;;-4.77;100.00;98745.50;5079655;28;20046;-55
2021/12/21 05:59:09;;;;;;;16.35;5.43;;;;;;;-4.84;100.00;98737.63;5080895;28;20065;-56
2021/12/21 06:01:35;;;;;;;16.25;6.03;;;;;;;-5.00;100.00;98748.13;5071585;28;20050;-54
2021/12/21 06:04:01;;;;;;;15.35;5.20;;;;;;;-5.03;100.00;98755.69;5071089;28;20781;-56
2021/12/21 06:06:30;;;;;;;12.40;5.25;;;;;;;-4.91;100.00;98763.69;5084216;28;20044;-56
2021/12/21 06:08:57;;;;;;;14.40;5.45;;;;;;;-4.88;100.00;98761.25;5081406;28;20490;-56
2021/12/21 06:11:23;;;;;;;16.05;5.57;;;;;;;-4.92;100.00;98768.78;5075900;28;20040;-56
2021/12/21 06:27:02;;;;;;;13.10;5.22;;;;;;;-5.02;100.00;98762.50;5085509;28;20467;-55
2021/12/21 06:29:28;;;;;;;15.40;5.68;;;;;;;-5.04;100.00;98765.00;5083080;28;20482;-57
2021/12/21 06:31:54;;;;;;;15.32;5.00;;;;;;;-4.54;100.00;98757.25;5078608;28;20046;-55
2021/12/21 06:34:19;;;;;;;14.18;5.15;;;;;;;-4.66;100.00;98754.31;5079915;28;20115;-54
2021/12/21 06:36:45;;;;;;;12.30;5.28;;;;;;;-4.67;100.00;98752.59;5078263;28;20040;-55
2021/12/21 06:39:11;;;;;;;10.32;4.40;;;;;;;-4.54;100.00;98754.72;5078599;28;20027;-54
2021/12/21 06:41:37;;;;;;;11.05;4.25;;;;;;;-4.56;100.00;98758.88;5080178;28;20039;-56
2021/12/21 06:44:04;;;;;;;14.07;5.15;;;;;;;-4.61;100.00;98752.78;5074787;28;20080;-54
2021/12/21 06:51:52;;;;;;;14.35;5.80;;;;;;;-4.51;100.00;98753.94;5073411;28;20538;-55
2021/12/21 06:54:18;;;;;;;13.95;5.82;;;;;;;-4.56;100.00;98748.69;5080186;28;20028;-54
2021/12/21 06:56:43;;;;;;;12.63;5.15;;;;;;;-4.34;100.00;98762.09;5075782;28;20032;-55
2021/12/21 06:59:09;;;;;;;12.65;4.30;;;;;;;-4.26;100.00;98760.66;5080628;28;20112;-56
2021/12/21 07:01:37;;;;;;;14.65;4.70;;;;;;;-3.63;100.00;98757.34;5079499;28;20039;-54
2021/12/21 07:04:03;;;;;;;14.23;4.15;;;;;;;-3.17;100.00;98752.63;5085953;28;20024;-54
2021/12/21 07:06:29;;;;;;;13.07;4.70;;;;;;;-3.38;100.00;98753.78;5093063;27;20044;-55
2021/12/21 07:09:08;;;;;;;15.02;4.22;;;;;;;-3.05;100.00;98757.16;5082779;28;20036;-54
2021/12/21 07:19:28;;;;;;;16.83;5.55;;;;;;;-2.69;100.00;98754.66;5079833;28;20070;-55
2021/12/21 07:21:54;;;;;;;14.25;5.10;;;;;;;-2.65;100.00;98753.88;5082247;28;20136;-54
2021/12/21 07:24:20;;;;;;;18.23;5.90;;;;;;;-2.81;100.00;98747.56;5086305;28;20023;-55
2021/12/21 07:26:45;;;;;;;13.32;4.93;;;;;;;-2.16;100.00;98756.72;5079561;28;20068;-54
2021/12/21 07:29:11;;;;;;;15.73;5.35;;;;;;;-2.08;100.00;98756.88;5078421;28;20618;-54
2021/12/21 07:31:36;;;;;;;795.47;42.42;;;;;;;-2.10;100.00;98754.28;5072051;28;20113;-58
2021/12/21 07:34:02;;;;;;;17.63;4.95;;;;;;;-0.92;100.00;98759.94;5082380;28;20023;-55
2021/12/21 07:36:32;;;;;;;14.68;5.00;;;;;;;-1.00;100.00;98762.38;5077940;28;20043;-53
2021/12/21 07:38:58;;;;;;;13.90;5.07;;;;;;;-0.41;100.00;98761.63;5073497;28;20785;-54
2021/12/21 07:41:25;;;;;;;14.25;5.43;;;;;;;-0.56;100.00;98756.25;5075817;28;20083;-55
2021/12/21 07:43:50;;;;;;;29.40;6.68;;;;;;;-0.47;100.00;98762.38;5073562;28;20113;-54
2021/12/21 07:46:15;;;;;;;65.68;7.65;;;;;;;-0.17;100.00;98760.25;5078251;28;20044;-54
2021/12/21 07:48:41;;;;;;;68.78;7.88;;;;;;;-0.10;100.00;98756.94;5074928;28;20086;-54
2021/12/21 07:51:07;;;;;;;23.42;6.43;;;;;;;-1.14;100.00;98758.69;5074947;28;20122;-54
2021/12/21 07:53:33;;;;;;;15.88;6.30;;;;;;;-1.41;100.00;98759.94;5081340;28;20039;-55
2021/12/21 07:56:02;;;;;;;46.53;6.60;;;;;;;-0.30;100.00;98752.38;5077319;28;20036;-54
2021/12/21 07:58:29;;;;;;;14.05;6.10;;;;;;;-1.29;100.00;98760.16;5077856;28;20062;-54
2021/12/21 08:00:59;;;;;;;179.07;12.20;;;;;;;-0.68;100.00;98756.91;5080492;28;20101;-55
2021/12/21 08:03:25;;;;;;;14.38;6.20;;;;;;;-1.55;100.00;98760.50;5073856;28;20024;-55
2021/12/21 08:05:53;;;;;;;91.22;8.85;;;;;;;-1.62;100.00;98760.38;5073666;28;20090;-55
2021/12/21 08:08:21;;;;;;;15.70;6.50;;;;;;;-1.88;100.00;98753.03;5075801;28;20028;-54
2021/12/21 08:11:07;;;;;;;15.13;6.30;;;;;;;-1.55;100.00;98754.53;5076440;28;20035;-53
2021/12/21 08:13:33;;;;;;;16.02;6.30;;;;;;;-1.33;100.00;98765.19;5074484;28;20482;-54
2021/12/21 08:15:58;;;;;;;17.58;6.93;;;;;;;-1.30;100.00;98760.13;5079477;28;20050;-55
2021/12/21 08:18:23;;;;;;;13.98;5.85;;;;;;;-1.01;100.00;98764.09;5076161;28;20132;-54
2021/12/21 08:20:49;;;;;;;13.95;5.60;;;;;;;-1.05;100.00;98763.97;5077408;28;20047;-55
2021/12/21 08:23:14;;;;;;;16.27;6.63;;;;;;;-1.21;100.00;98763.72;5077214;28;20603;-56
2021/12/21 08:25:40;;;;;;;10.85;5.22;;;;;;;-0.34;100.00;98763.44;5074728;28;20466;-54
2021/12/21 08:28:06;;;;;;;16.15;6.78;;;;;;;-1.31;100.00;98763.53;5059773;28;20024;-53
2021/12/21 08:30:32;;;;;;;25.00;5.95;;;;;;;0.25;100.00;98761.66;5077454;28;20044;-54
2021/12/21 08:32:57;;;;;;;22.52;7.28;;;;;;;0.87;100.00;98761.50;5076865;28;20023;-56
2021/12/21 08:35:24;;;;;;;17.98;6.65;;;;;;;2.23;100.00;98783.94;5095256;28;20028;-56
2021/12/21 08:37:52;;;;;;;80.18;10.40;;;;;;;0.34;100.00;98766.91;5076646;28;20028;-55
2021/12/21 08:40:22;;;;;;;18.02;8.13;;;;;;;0.19;100.00;98773.56;5077194;28;20431;-56
2021/12/21 08:42:50;;;;;;;17.40;7.10;;;;;;;0.04;100.00;98775.94;5079875;28;20106;-56
2021/12/21 08:45:16;;;;;;;16.42;5.82;;;;;;;0.11;100.00;98766.59;5075644;28;20019;-54
2021/12/21 08:47:42;;;;;;;14.98;6.88;;;;;;;-0.03;100.00;98771.56;5078598;28;20028;-55
2021/12/21 08:50:09;;;;;;;15.23;6.70;;;;;;;-0.16;100.00;98767.13;5075818;28;20039;-56
2021/12/21 08:52:36;;;;;;;14.50;6.65;;;;;;;0.01;100.00;98757.09;5073803;28;20812;-56
2021/12/21 08:55:04;;;;;;;24.70;7.90;;;;;;;-0.17;100.00;98763.66;5077134;28;20544;-56
2021/12/21 08:57:29;;;;;;;12.35;5.80;;;;;;;0.33;100.00;98767.75;5076559;28;20272;-55
2021/12/21 08:59:55;;;;;;;11.80;5.75;;;;;;;0.36;100.00;98757.53;5081928;28;20458;-55
2021/12/21 09:02:20;;;;;;;14.77;6.53;;;;;;;1.34;100.00;98763.66;5077229;28;20083;-56
2021/12/21 09:04:46;;;;;;;16.20;6.60;;;;;;;1.32;100.00;98762.78;5079804;28;20043;-57
2021/12/21 09:07:11;;;;;;;14.85;7.30;;;;;;;0.66;100.00;98758.72;5080196;28;20110;-55
2021/12/21 09:09:36;;;;;;;21.63;7.60;;;;;;;-0.05;100.00;98757.88;5080268;28;20016;-57
2021/12/21 09:12:02;;;;;;;13.50;6.38;;;;;;;-0.33;100.00;98762.59;5078382;28;20203;-55
2021/12/21 09:14:31;;;;;;;12.88;6.68;;;;;;;0.81;100.00;98765.72;5078519;28;20035;-55
2021/12/21 09:17:01;;;;;;;20.45;7.53;;;;;;;-0.51;100.00;98760.63;5082920;28;20123;-55
2021/12/21 09:19:26;;;;;;;11.38;5.43;;;;;;;1.03;100.00;98761.66;5079096;28;20028;-55
2021/12/21 09:21:52;;;;;;;19.55;8.50;;;;;;;0.46;100.00;98761.03;5079589;28;20063;-54
2021/12/21 09:24:18;;;;;;;17.00;7.05;;;;;;;0.04;100.00;98760.56;5081186;28;20027;-56
2021/12/21 09:26:44;;;;;;;19.15;7.63;;;;;;;0.79;100.00;98758.00;5083847;28;20074;-54
2021/12/21 09:29:10;;;;;;;23.75;9.32;;;;;;;1.57;100.00;98765.53;5077881;28;20115;-56
2021/12/21 09:31:35;;;;;;;15.30;6.35;;;;;;;1.59;100.00;98757.84;5080111;28;20147;-56
2021/12/21 09:34:01;;;;;;;16.20;7.60;;;;;;;1.11;100.00;98750.59;5083068;28;20503;-57
2021/12/21 09:36:28;;;;;;;14.20;6.35;;;;;;;2.28;100.00;98760.81;5078742;28;20039;-55
2021/12/21 09:38:54;;;;;;;22.15;9.15;;;;;;;1.28;100.00;98757.59;5079680;28;20036;-55
2021/12/21 09:41:20;;;;;;;17.50;7.80;;;;;;;1.21;100.00;98751.53;5081439;28;20051;-55
2021/12/21 09:43:46;;;;;;;17.23;8.13;;;;;;;1.63;100.00;98754.44;5077205;28;20024;-55
2021/12/21 09:46:12;;;;;;;16.67;8.25;;;;;;;1.44;100.00;98758.59;5079086;28;20035;-55
2021/12/21 09:48:38;;;;;;;18.80;8.00;;;;;;;1.16;100.00;98750.66;5080556;28;20055;-55
2021/12/21 09:51:03;;;;;;;17.15;8.73;;;;;;;1.28;100.00;98762.72;5078219;28;20064;-54
2021/12/21 09:53:33;;;;;;;17.42;8.15;;;;;;;1.01;100.00;98765.91;5079880;28;20575;-56
2021/12/21 09:55:59;;;;;;;19.95;8.25;;;;;;;0.54;100.00;98762.88;5076541;28;20065;-55
2021/12/21 09:58:24;;;;;;;15.88;7.95;;;;;;;1.35;100.00;98761.94;5083634;28;20766;-56
2021/12/21 10:00:50;;;;;;;15.57;7.38;;;;;;;1.24;100.00;98766.13;5080164;28;20043;-56
2021/12/21 10:03:17;;;;;;;17.83;8.70;;;;;;;1.09;100.00;98761.72;5079811;28;20507;-55
2021/12/21 10:05:44;;;;;;;19.17;7.80;;;;;;;0.99;100.00;98771.03;5076484;28;20036;-55
2021/12/21 10:08:13;;;;;;;15.15;6.65;;;;;;;1.27;100.00;98769.59;5076343;28;20032;-55
2021/12/21 10:10:43;;;;;;;17.38;7.55;;;;;;;0.51;100.00;98767.09;5073736;28;20122;-54
2021/12/21 10:13:15;;;;;;;16.95;7.78;;;;;;;0.74;100.00;98764.81;5076788;28;20036;-56
2021/12/21 10:15:46;;;;;;;14.27;6.60;;;;;;;1.12;100.00;98764.28;5079477;28;20044;-55
2021/12/21 10:18:12;;;;;;;15.80;7.10;;;;;;;0.66;100.00;98771.53;5074629;28;20032;-55
2021/12/21 10:20:40;;;;;;;18.02;7.43;;;;;;;0.81;100.00;98771.72;5076202;28;20031;-55
2021/12/21 10:23:19;;;;;;;13.43;6.45;;;;;;;1.00;100.00;98777.06;5082055;28;20028;-54
2021/12/21 10:25:51;;;;;;;13.02;7.15;;;;;;;0.37;100.00;98772.09;5076196;28;20454;-55
2021/12/21 10:28:56;;;;;;;13.88;7.05;;;;;;;0.04;100.00;98764.81;5081596;28;20141;-55
2021/12/21 10:31:25;;;;;;;13.00;6.85;;;;;;;0.00;100.00;98766.50;5049164;28;20040;-55
2021/12/21 10:33:51;;;;;;;14.32;6.05;;;;;;;-0.05;100.00;98775.81;5080698;28;20103;-55
2021/12/21 10:36:17;;;;;;;19.48;6.85;;;;;;;0.09;100.00;98774.31;5079745;28;20126;-56
2021/12/21 10:38:49;;;;;;;13.32;6.05;;;;;;;0.12;100.00;98769.19;5079591;28;20111;-55
2021/12/21 10:41:18;;;;;;;12.82;6.32;;;;;;;0.04;100.00;98773.38;5083875;28;20058;-55
2021/12/21 10:43:57;;;;;;;12.57;6.22;;;;;;;0.12;100.00;98769.19;5079638;28;20032;-54
2021/12/21 10:46:27;;;;;;;11.82;5.78;;;;;;;0.25;100.00;98764.22;5079993;28;20036;-55
2021/12/21 10:48:54;;;;;;;16.00;7.25;;;;;;;0.09;100.00;98756.34;5080129;28;20028;-55
2021/12/21 10:51:20;;;;;;;13.73;6.90;;;;;;;-0.04;100.00;98757.91;5082890;28;20039;-54
2021/12/21 10:53:48;;;;;;;9.82;5.63;;;;;;;0.22;100.00;98753.91;5076531;28;20020;-55
2021/12/21 10:56:16;;;;;;;13.07;5.68;;;;;;;0.19;100.00;98742.78;5081811;28;20501;-56
2021/12/21 10:58:43;;;;;;;12.80;5.47;;;;;;;0.18;100.00;98746.22;5075843;28;20043;-54
2021/12/21 11:01:14;;;;;;;12.45;5.30;;;;;;;0.43;100.00;98738.78;5076972;28;20043;-55
2021/12/21 11:03:49;;;;;;;13.05;5.75;;;;;;;0.28;100.00;98743.75;5080499;28;20028;-55
2021/12/21 11:06:17;;;;;;;14.27;5.68;;;;;;;0.36;100.00;98737.00;5084749;28;20042;-54
2021/12/21 11:08:48;;;;;;;10.57;4.60;;;;;;;0.47;100.00;98732.84;5072950;28;20097;-58
2021/12/21 11:11:29;;;;;;;11.80;5.32;;;;;;;0.61;100.00;98732.13;5075340;28;20028;-55
2021/12/21 11:14:14;;;;;;;10.85;5.50;;;;;;;1.01;100.00;98727.38;5094444;27;20122;-56
2021/12/21 11:16:45;;;;;;;14.48;5.50;;;;;;;0.73;100.00;98729.69;5078478;28;20033;-55
2021/12/21 11:19:23;;;;;;;15.95;5.50;;;;;;;0.89;100.00;98716.16;5076301;28;20062;-55
2021/12/21 11:21:51;;;;;;;7.25;3.50;;;;;;;1.16;100.00;98714.69;5079944;28;20788;-54
2021/12/21 11:24:18;;;;;;;12.00;5.70;;;;;;;0.82;100.00;98706.66;5080187;28;20048;-55
2021/12/21 11:26:46;;;;;;;10.68;5.18;;;;;;;0.54;100.00;98711.53;5077463;27;20086;-54
2021/12/21 11:29:17;;;;;;;10.48;4.90;;;;;;;0.70;100.00;98703.97;5075827;28;20020;-55
2021/12/21 11:31:47;;;;;;;12.10;5.40;;;;;;;0.56;100.00;98704.69;5076887;28;20127;-58
2021/12/21 11:34:17;;;;;;;15.70;5.50;;;;;;;0.69;100.00;98712.53;5082414;28;20021;-56
2021/12/21 11:39:31;;;;;;;10.05;5.53;;;;;;;0.94;100.00;98700.78;5074489;28;20795;-55
2021/12/21 11:41:57;;;;;;;10.40;5.28;;;;;;;0.96;100.00;98694.81;5075394;27;20064;-55
2021/12/21 11:44:40;;;;;;;12.45;5.43;;;;;;;1.07;100.00;98691.47;5082504;28;20445;-57
2021/12/21 11:47:09;;;;;;;11.30;5.15;;;;;;;1.25;100.00;98691.63;5080398;28;20036;-56
2021/12/21 11:49:50;;;;;;;9.25;4.68;;;;;;;1.37;100.00;98695.97;5075636;28;20089;-54
2021/12/21 11:52:24;;;;;;;11.57;5.30;;;;;;;1.48;100.00;98688.34;5074527;28;20111;-56
2021/12/21 11:54:53;;;;;;;10.02;5.25;;;;;;;1.42;100.00;98690.88;5079446;28;20963;-55
2021/12/21 11:57:32;;;;;;;12.98;5.13;;;;;;;1.37;100.00;98679.69;5077144;28;20044;-55
2021/12/21 12:00:16;;;;;;;10.70;5.50;;;;;;;1.42;100.00;98671.16;5079061;28;20038;-53
2021/12/21 12:02:43;;;;;;;9.18;5.28;;;;;;;1.18;99.75;98669.28;5079020;28;20707;-55
2021/12/21 12:05:31;;;;;;;13.85;5.82;;;;;;;1.21;100.00;98666.72;5080506;28;20037;-53
2021/12/21 12:08:10;;;;;;;8.88;5.00;;;;;;;1.10;99.33;98676.06;5077344;28;20028;-54
2021/12/21 12:10:38;;;;;;;10.32;5.15;;;;;;;1.18;100.00;98670.97;5078629;28;20039;-54
2021/12/21 12:13:34;;;;;;;9.93;5.18;;;;;;;1.03;99.58;98671.72;5079947;28;20138;-54
2021/12/21 12:16:05;;;;;;;14.30;5.22;;;;;;;1.20;100.00;98675.31;5076992;28;20059;-54
2021/12/21 12:18:36;;;;;;;9.30;4.63;;;;;;;1.39;98.61;98680.56;5078305;28;20103;-54
2021/12/21 12:21:15;;;;;;;13.05;5.05;;;;;;;1.60;100.00;98678.13;5078789;28;20039;-55
2021/12/21 12:24:01;;;;;;;13.68;5.20;;;;;;;1.69;100.00;98670.47;5080235;28;20028;-54
2021/12/21 12:26:33;;;;;;;10.63;5.07;;;;;;;1.95;99.17;98663.72;5076445;28;20067;-56
2021/12/21 12:29:20;;;;;;;8.27;3.47;;;;;;;2.10;100.00;98666.38;5080601;28;20111;-54
2021/12/21 12:32:04;;;;;;;8.32;4.05;;;;;;;2.10;100.00;98663.78;5081173;28;20043;-56